createdAt,value
2023-05-11T00:01:08.355Z,6.47
2023-05-11T00:03:10.463Z,9.85
2023-05-11T00:05:12.148Z,8.50
2023-05-11T00:07:13.615Z,8.50
2023-05-11T00:09:15.150Z,7.97
2023-05-11T00:11:18.506Z,7.88
2023-05-11T00:13:20.442Z,8.10
2023-05-11T00:15:21.934Z,8.52
2023-05-11T00:17:23.523Z,7.40
2023-05-11T00:19:25.083Z,8.85
2023-05-11T00:21:26.820Z,10.30
2023-05-11T00:23:28.393Z,10.23
2023-05-11T00:25:30.082Z,9.18
2023-05-11T00:27:31.548Z,7.15
2023-05-11T00:29:33.012Z,7.75
2023-05-11T00:31:34.530Z,9.63
2023-05-11T00:33:36.081Z,10.93
2023-05-11T00:35:37.700Z,11.60
2023-05-11T00:37:39.375Z,12.02
2023-05-11T00:39:41.545Z,7.97
2023-05-11T00:41:43.029Z,7.88
2023-05-11T00:43:44.480Z,11.10
2023-05-11T00:45:48.150Z,10.82
2023-05-11T00:47:50.008Z,27.02
2023-05-11T00:49:53.316Z,14.32
2023-05-11T00:51:55.063Z,15.50
2023-05-11T00:53:56.890Z,14.75
2023-05-11T00:55:59.046Z,12.18
2023-05-11T00:58:00.616Z,17.13
2023-05-11T01:00:03.399Z,14.50
2023-05-11T01:02:05.567Z,19.70
2023-05-11T01:04:07.726Z,13.57
2023-05-11T01:06:15.562Z,17.80
2023-05-11T01:08:31.035Z,15.02
2023-05-11T01:10:58.848Z,22.42
2023-05-11T01:13:26.783Z,17.85
2023-05-11T01:15:50.890Z,27.35
2023-05-11T01:18:11.715Z,26.05
2023-05-11T01:20:18.683Z,25.20
2023-05-11T01:22:44.996Z,32.78
2023-05-11T01:25:31.752Z,31.52
2023-05-11T01:28:14.249Z,27.40
2023-05-11T01:30:21.551Z,33.67
2023-05-11T01:32:26.398Z,32.03
2023-05-11T01:34:31.941Z,32.95
2023-05-11T01:36:36.040Z,35.78
2023-05-11T01:38:40.839Z,37.40
2023-05-11T01:40:44.356Z,34.92
2023-05-11T01:42:50.035Z,37.55
2023-05-11T01:44:55.214Z,33.83
2023-05-11T01:47:00.529Z,39.58
2023-05-11T01:49:07.511Z,41.58
2023-05-11T01:51:09.607Z,43.53
2023-05-11T01:53:13.671Z,43.00
2023-05-11T01:55:19.504Z,43.85
2023-05-11T01:57:22.045Z,49.08
2023-05-11T01:59:26.433Z,40.30
2023-05-11T02:01:30.514Z,44.65
2023-05-11T02:03:35.052Z,47.95
2023-05-11T02:05:38.973Z,44.40
2023-05-11T02:07:42.892Z,41.25
2023-05-11T02:09:45.785Z,39.95
2023-05-11T02:11:49.150Z,45.00
2023-05-11T02:13:53.285Z,40.58
2023-05-11T02:15:56.932Z,44.53
2023-05-11T02:17:59.338Z,43.38
2023-05-11T02:20:03.677Z,44.35
2023-05-11T02:22:07.015Z,44.20
2023-05-11T02:24:09.313Z,42.20
2023-05-11T02:26:13.394Z,39.10
2023-05-11T02:28:14.937Z,41.13
2023-05-11T02:30:16.808Z,39.72
2023-05-11T02:32:21.681Z,35.92
2023-05-11T02:34:26.786Z,37.97
2023-05-11T02:36:29.799Z,48.10
2023-05-11T02:38:34.443Z,39.55
2023-05-11T02:40:45.873Z,36.63
2023-05-11T02:42:52.837Z,30.55
2023-05-11T02:45:20.639Z,32.50
2023-05-11T02:47:29.019Z,35.83
2023-05-11T02:49:32.514Z,33.92
2023-05-11T02:51:37.675Z,31.45
2023-05-11T02:53:41.562Z,37.60
2023-05-11T02:55:43.141Z,37.15
2023-05-11T02:57:45.722Z,35.35
2023-05-11T02:59:48.202Z,34.85
2023-05-11T03:01:50.722Z,37.35
2023-05-11T03:03:52.877Z,38.15
2023-05-11T03:05:54.514Z,35.53
2023-05-11T03:07:59.665Z,32.13
2023-05-11T03:10:02.960Z,32.97
2023-05-11T03:12:05.620Z,36.00
2023-05-11T03:14:07.563Z,31.10
2023-05-11T03:16:11.470Z,29.35
2023-05-11T03:18:13.572Z,31.83
2023-05-11T03:20:16.936Z,31.52
2023-05-11T03:22:20.348Z,26.55
2023-05-11T03:24:22.874Z,28.80
2023-05-11T03:26:28.378Z,31.75
2023-05-11T03:28:31.841Z,27.45
2023-05-11T03:30:33.771Z,26.52
2023-05-11T03:32:36.126Z,28.73
2023-05-11T03:34:37.757Z,26.25
2023-05-11T03:36:40.556Z,26.30
2023-05-11T03:38:45.007Z,25.83
2023-05-11T03:40:47.707Z,30.42
2023-05-11T03:42:51.324Z,26.23
2023-05-11T03:44:58.317Z,27.33
2023-05-11T03:47:01.702Z,27.10
2023-05-11T03:49:05.057Z,33.08
2023-05-11T03:51:06.935Z,22.92
2023-05-11T03:53:08.805Z,24.25
2023-05-11T03:55:10.768Z,25.23
2023-05-11T03:57:13.920Z,24.95
2023-05-11T03:59:16.786Z,24.27
2023-05-11T04:01:18.869Z,21.35
2023-05-11T04:03:20.579Z,22.95
2023-05-11T04:05:22.202Z,20.83
2023-05-11T04:07:23.783Z,20.95
2023-05-11T04:09:25.518Z,21.13
2023-05-11T04:11:27.630Z,18.38
2023-05-11T04:13:29.111Z,19.63
2023-05-11T04:15:30.567Z,20.38
2023-05-11T04:17:32.076Z,20.63
2023-05-11T04:19:33.553Z,20.48
2023-05-11T04:21:35.932Z,20.38
2023-05-11T04:23:38.230Z,20.30
2023-05-11T04:25:39.707Z,21.15
2023-05-11T04:27:41.275Z,24.17
2023-05-11T04:29:42.798Z,22.33
2023-05-11T04:31:44.300Z,19.75
2023-05-11T04:33:45.826Z,21.92
2023-05-11T04:35:49.258Z,20.10
2023-05-11T04:37:50.834Z,22.83
2023-05-11T04:39:52.386Z,23.30
2023-05-11T04:41:53.866Z,25.60
2023-05-11T04:43:55.330Z,26.00
2023-05-11T04:45:57.048Z,27.40
2023-05-11T04:47:58.548Z,26.02
2023-05-11T04:50:00.079Z,23.17
2023-05-11T04:52:01.610Z,23.67
2023-05-11T04:54:03.155Z,25.92
2023-05-11T04:56:05.108Z,27.42
2023-05-11T04:58:06.658Z,24.67
2023-05-11T05:00:09.298Z,23.45
2023-05-11T05:02:10.791Z,22.92
2023-05-11T05:04:12.594Z,23.40
2023-05-11T05:06:14.196Z,21.17
2023-05-11T05:08:15.698Z,24.17
2023-05-11T05:10:17.604Z,23.60
2023-05-11T05:12:19.300Z,21.33
2023-05-11T05:14:20.751Z,23.27
2023-05-11T05:16:22.316Z,21.80
2023-05-11T05:18:23.832Z,21.13
2023-05-11T05:20:25.556Z,24.75
2023-05-11T05:22:27.086Z,23.17
2023-05-11T05:24:28.603Z,32.45
2023-05-11T05:26:30.139Z,27.83
2023-05-11T05:28:31.568Z,28.02
2023-05-11T05:30:33.191Z,28.90
2023-05-11T05:32:34.736Z,30.15
2023-05-11T05:34:36.314Z,27.65
2023-05-11T05:36:39.110Z,20.67
2023-05-11T05:38:40.590Z,23.30
2023-05-11T05:40:42.121Z,22.27
2023-05-11T05:42:43.940Z,21.02
2023-05-11T05:44:45.452Z,22.23
2023-05-11T05:46:47.120Z,20.23
2023-05-11T05:48:48.685Z,20.85
2023-05-11T05:50:50.785Z,19.95
2023-05-11T05:52:52.254Z,22.80
2023-05-11T05:54:53.683Z,21.02
2023-05-11T05:56:55.451Z,16.77
2023-05-11T05:58:56.951Z,16.45
2023-05-11T06:00:58.456Z,15.57
2023-05-11T06:03:00.285Z,15.70
2023-05-11T06:05:02.043Z,17.08
2023-05-11T06:07:03.578Z,16.58
2023-05-11T06:09:05.043Z,18.75
2023-05-11T06:11:06.555Z,16.42
2023-05-11T06:13:08.485Z,17.80
2023-05-11T06:15:10.338Z,20.98
2023-05-11T06:17:11.845Z,19.13
2023-05-11T06:19:13.551Z,15.95
2023-05-11T06:21:15.115Z,17.52
2023-05-11T06:23:16.720Z,17.77
2023-05-11T06:25:18.215Z,14.50
2023-05-11T06:27:19.736Z,19.00
2023-05-11T06:29:22.303Z,23.10
2023-05-11T06:31:24.397Z,20.17
2023-05-11T06:33:26.417Z,26.02
2023-05-11T06:35:27.894Z,20.90
2023-05-11T06:37:30.182Z,21.58
2023-05-11T06:39:31.663Z,18.20
2023-05-11T06:41:33.244Z,18.65
2023-05-11T06:43:34.701Z,19.65
2023-05-11T06:45:36.890Z,18.83
2023-05-11T06:47:39.392Z,20.33
2023-05-11T06:49:44.250Z,19.13
2023-05-11T06:51:45.725Z,20.88
2023-05-11T06:53:47.361Z,25.25
2023-05-11T06:55:48.841Z,23.88
2023-05-11T06:57:50.300Z,28.25
2023-05-11T06:59:51.817Z,22.73
2023-05-11T07:01:53.301Z,26.13
2023-05-11T07:03:55.388Z,25.60
2023-05-11T07:05:56.859Z,25.88
2023-05-11T07:07:58.336Z,20.20
2023-05-11T07:09:59.899Z,22.42
2023-05-11T07:12:01.474Z,28.95
2023-05-11T07:14:03.404Z,24.35
2023-05-11T07:16:05.095Z,28.75
2023-05-11T07:18:06.634Z,24.35
2023-05-11T07:20:08.836Z,23.35
2023-05-11T07:22:10.704Z,24.83
2023-05-11T07:24:13.171Z,23.55
2023-05-11T07:26:14.695Z,23.15
2023-05-11T07:28:16.232Z,20.02
2023-05-11T07:30:18.824Z,20.92
2023-05-11T07:32:20.530Z,24.63
2023-05-11T07:34:22.112Z,26.23
2023-05-11T07:36:23.685Z,24.20
2023-05-11T07:38:25.269Z,25.08
2023-05-11T07:40:26.976Z,22.90
2023-05-11T07:42:28.529Z,29.17
2023-05-11T07:44:29.982Z,23.95
2023-05-11T07:46:31.499Z,25.00
2023-05-11T07:48:33.079Z,22.50
2023-05-11T07:50:34.880Z,22.17
2023-05-11T07:52:36.392Z,23.85
2023-05-11T07:54:37.996Z,23.25
2023-05-11T07:56:39.597Z,26.65
2023-05-11T07:58:41.136Z,23.73
2023-05-11T08:00:42.635Z,24.25
2023-05-11T08:02:44.330Z,28.42
2023-05-11T08:04:46.425Z,20.70
2023-05-11T08:06:48.281Z,22.83
2023-05-11T08:08:49.791Z,21.95
2023-05-11T08:10:51.873Z,22.38
2023-05-11T08:12:53.407Z,25.85
2023-05-11T08:14:55.334Z,19.50
2023-05-11T08:16:56.874Z,18.15
2023-05-11T08:18:58.455Z,18.40
2023-05-11T08:21:00.186Z,17.30
2023-05-11T08:23:01.673Z,18.17
2023-05-11T08:25:03.851Z,20.42
2023-05-11T08:27:06.157Z,17.35
2023-05-11T08:29:07.755Z,19.92
2023-05-11T08:31:09.230Z,19.02
2023-05-11T08:33:29.180Z,17.08
2023-05-11T08:35:33.146Z,17.33
2023-05-11T08:37:34.608Z,18.05
2023-05-11T08:39:46.690Z,16.65
2023-05-11T08:41:51.586Z,20.80
2023-05-11T08:43:55.161Z,18.17
2023-05-11T08:46:01.182Z,15.23
2023-05-11T08:48:03.575Z,13.65
2023-05-11T08:50:05.513Z,15.00
2023-05-11T08:52:08.062Z,17.48
2023-05-11T08:54:09.687Z,13.38
2023-05-11T08:56:13.018Z,23.77
2023-05-11T08:58:19.445Z,16.10
2023-05-11T09:00:23.168Z,15.10
2023-05-11T09:02:26.255Z,14.00
2023-05-11T09:04:28.607Z,19.85
2023-05-11T09:06:31.277Z,18.55
2023-05-11T09:08:35.849Z,14.70
2023-05-11T09:10:37.962Z,13.07
2023-05-11T09:12:39.562Z,13.07
2023-05-11T09:14:41.222Z,10.65
2023-05-11T09:16:42.779Z,10.80
2023-05-11T09:18:52.528Z,13.35
2023-05-11T09:20:54.406Z,10.90
2023-05-11T09:22:56.449Z,15.10
2023-05-11T09:24:58.021Z,13.45
2023-05-11T09:27:09.989Z,11.10
2023-05-11T09:29:11.725Z,9.50
2023-05-11T09:31:13.393Z,10.30
2023-05-11T09:33:22.844Z,19.80
2023-05-11T09:35:32.214Z,11.45
2023-05-11T09:37:33.726Z,12.35
2023-05-11T09:39:47.342Z,15.07
2023-05-11T09:42:19.161Z,10.65
2023-05-11T09:44:20.681Z,9.50
2023-05-11T09:46:22.744Z,9.70
2023-05-11T09:48:27.019Z,10.40
2023-05-11T09:50:33.419Z,9.68
2023-05-11T09:52:34.924Z,10.45
2023-05-11T09:54:44.928Z,11.38
2023-05-11T09:56:54.603Z,7.70
2023-05-11T09:58:57.608Z,8.20
2023-05-11T10:00:59.241Z,8.10
2023-05-11T10:03:06.696Z,9.82
2023-05-11T10:05:13.183Z,10.40
2023-05-11T10:07:25.196Z,8.13
2023-05-11T10:09:27.191Z,9.93
2023-05-11T10:11:28.678Z,9.88
2023-05-11T10:13:32.230Z,8.95
2023-05-11T10:15:35.303Z,8.75
2023-05-11T10:17:37.574Z,11.52
2023-05-11T10:19:39.550Z,7.65
2023-05-11T10:21:41.175Z,12.18
2023-05-11T10:23:43.142Z,8.38
2023-05-11T10:25:45.188Z,8.23
2023-05-11T10:27:47.284Z,10.85
2023-05-11T10:29:49.494Z,8.52
2023-05-11T10:31:52.423Z,8.13
2023-05-11T10:33:53.983Z,9.32
2023-05-11T10:35:56.148Z,7.75
2023-05-11T10:37:58.475Z,9.73
2023-05-11T10:40:00.311Z,9.05
2023-05-11T10:42:04.826Z,7.85
2023-05-11T10:44:12.676Z,9.25
2023-05-11T10:46:43.358Z,10.98
2023-05-11T10:48:55.010Z,15.45
2023-05-11T10:51:21.017Z,7.97
2023-05-11T10:53:25.603Z,8.35
2023-05-11T10:55:47.034Z,9.13
2023-05-11T10:58:05.637Z,8.43
2023-05-11T11:00:47.649Z,11.15
2023-05-11T11:02:49.483Z,9.13
2023-05-11T11:04:52.092Z,10.15
2023-05-11T11:07:06.585Z,10.63
2023-05-11T11:09:16.076Z,12.65
2023-05-11T11:11:34.258Z,9.73
2023-05-11T11:14:01.482Z,11.05
2023-05-11T11:16:02.933Z,8.48
2023-05-11T11:18:20.316Z,9.70
2023-05-11T11:20:54.988Z,10.18
2023-05-11T11:22:56.457Z,9.95
2023-05-11T11:24:57.991Z,10.02
2023-05-11T11:26:59.503Z,9.82
2023-05-11T11:29:11.572Z,8.98
2023-05-11T11:31:29.236Z,14.10
2023-05-11T11:33:32.568Z,7.28
2023-05-11T11:35:40.065Z,8.90
2023-05-11T11:38:03.142Z,10.00
2023-05-11T11:40:14.795Z,8.75
2023-05-11T11:42:20.038Z,10.30
2023-05-11T11:44:22.305Z,10.77
2023-05-11T11:46:29.774Z,9.50
2023-05-11T11:48:35.691Z,14.45
2023-05-11T11:50:37.396Z,11.93
2023-05-11T11:52:38.890Z,12.40
2023-05-11T11:54:41.402Z,10.55
2023-05-11T11:56:44.861Z,9.15
2023-05-11T11:58:46.572Z,9.25
2023-05-11T12:00:48.326Z,10.45
2023-05-11T12:02:50.076Z,11.57
2023-05-11T12:05:00.932Z,8.05
2023-05-11T12:07:06.109Z,6.45
2023-05-11T12:09:08.435Z,7.28
2023-05-11T12:11:09.977Z,5.97
2023-05-11T12:13:11.646Z,7.45
2023-05-11T12:15:30.474Z,6.43
2023-05-11T12:17:34.530Z,6.28
2023-05-11T12:19:36.698Z,8.73
2023-05-11T12:21:38.249Z,7.60
2023-05-11T12:23:39.725Z,7.50
2023-05-11T12:25:41.205Z,8.27
2023-05-11T12:28:01.986Z,6.65
2023-05-11T12:30:03.606Z,7.43
2023-05-11T12:32:05.399Z,7.85
2023-05-11T12:34:07.265Z,7.07
2023-05-11T12:36:09.040Z,6.18
2023-05-11T12:38:11.651Z,6.55
2023-05-11T12:40:13.997Z,7.40
2023-05-11T12:42:18.726Z,6.32
2023-05-11T12:44:22.385Z,6.32
2023-05-11T12:46:24.227Z,8.27
2023-05-11T12:48:25.863Z,7.25
2023-05-11T12:50:27.349Z,5.30
2023-05-11T12:52:28.818Z,5.85
2023-05-11T12:54:38.344Z,5.32
2023-05-11T12:56:47.357Z,6.38
2023-05-11T12:58:48.841Z,5.88
2023-05-11T13:00:57.587Z,4.75
2023-05-11T13:02:59.154Z,5.53
2023-05-11T13:05:12.028Z,5.88
2023-05-11T13:07:23.263Z,5.00
2023-05-11T13:09:25.807Z,5.00
2023-05-11T13:11:27.345Z,4.20
2023-05-11T13:13:29.359Z,7.97
2023-05-11T13:15:31.295Z,4.80
2023-05-11T13:17:37.663Z,4.80
2023-05-11T13:19:39.556Z,4.22
2023-05-11T13:21:46.227Z,4.60
2023-05-11T13:23:51.600Z,4.07
2023-05-11T13:25:54.158Z,3.90
2023-05-11T13:27:55.900Z,3.95
2023-05-11T13:29:57.349Z,4.65
2023-05-11T13:31:58.832Z,4.53
2023-05-11T13:34:00.499Z,4.55
2023-05-11T13:36:02.223Z,3.70
2023-05-11T13:38:03.687Z,3.80
2023-05-11T13:40:08.843Z,5.72
2023-05-11T13:42:10.489Z,5.10
2023-05-11T13:44:12.074Z,3.92
2023-05-11T13:46:13.564Z,4.50
2023-05-11T13:48:15.064Z,4.72
2023-05-11T13:50:16.869Z,4.60
2023-05-11T13:52:18.427Z,4.05
2023-05-11T13:54:21.234Z,6.82
2023-05-11T13:56:22.907Z,3.90
2023-05-11T13:58:24.518Z,4.40
2023-05-11T14:00:26.132Z,4.18
2023-05-11T14:02:27.836Z,5.55
2023-05-11T14:04:29.428Z,7.13
2023-05-11T14:06:34.560Z,9.50
2023-05-11T14:08:36.140Z,4.80
2023-05-11T14:10:37.610Z,4.20
2023-05-11T14:12:39.112Z,4.28
2023-05-11T14:14:40.684Z,4.80
2023-05-11T14:16:42.266Z,5.22
2023-05-11T14:18:44.401Z,4.70
2023-05-11T14:20:46.109Z,7.55
2023-05-11T14:22:47.636Z,4.40
2023-05-11T14:24:49.209Z,5.47
2023-05-11T14:26:50.695Z,5.45
2023-05-11T14:28:52.342Z,4.75
2023-05-11T14:30:54.824Z,6.13
2023-05-11T14:32:57.033Z,4.63
2023-05-11T14:34:58.589Z,5.38
2023-05-11T14:37:01.241Z,5.20
2023-05-11T14:39:02.776Z,4.40
2023-05-11T14:41:04.405Z,4.75
2023-05-11T14:43:05.921Z,4.85
2023-05-11T14:45:07.972Z,4.60
2023-05-11T14:47:09.555Z,4.25
2023-05-11T14:49:11.026Z,4.13
2023-05-11T14:51:12.535Z,5.00
2023-05-11T14:53:13.999Z,10.18
2023-05-11T14:55:15.577Z,4.38
2023-05-11T14:57:17.649Z,5.95
2023-05-11T14:59:20.052Z,4.70
2023-05-11T15:01:21.584Z,4.63
2023-05-11T15:03:25.025Z,4.10
2023-05-11T15:05:27.552Z,8.32
2023-05-11T15:07:29.030Z,4.00
2023-05-11T15:09:30.529Z,4.22
2023-05-11T15:11:32.078Z,5.65
2023-05-11T15:13:33.542Z,4.95
2023-05-11T15:15:35.040Z,4.53
2023-05-11T15:17:36.685Z,4.72
2023-05-11T15:19:38.247Z,5.53
2023-05-11T15:21:39.694Z,5.88
2023-05-11T15:23:41.389Z,4.35
2023-05-11T15:25:44.526Z,6.60
2023-05-11T15:27:46.150Z,6.20
2023-05-11T15:29:47.703Z,7.05
2023-05-11T15:31:49.205Z,5.15
2023-05-11T15:33:50.773Z,9.40
2023-05-11T15:35:52.400Z,5.65
2023-05-11T15:37:53.908Z,5.60
2023-05-11T15:39:55.482Z,5.20
2023-05-11T15:41:56.943Z,5.95
2023-05-11T15:43:58.398Z,5.35
2023-05-11T15:46:00.089Z,7.53
2023-05-11T15:48:02.170Z,5.88
2023-05-11T15:50:04.033Z,5.78
2023-05-11T15:52:05.754Z,7.13
2023-05-11T15:54:07.257Z,6.95
2023-05-11T15:56:09.640Z,5.65
2023-05-11T15:58:11.717Z,6.97
2023-05-11T16:00:13.978Z,6.50
2023-05-11T16:02:15.491Z,7.72
2023-05-11T16:04:16.995Z,7.20
2023-05-11T16:06:18.464Z,8.02
2023-05-11T16:08:20.350Z,10.68
2023-05-11T16:10:22.156Z,11.48
2023-05-11T16:12:23.680Z,6.78
2023-05-11T16:14:25.254Z,6.85
2023-05-11T16:16:27.134Z,10.82
2023-05-11T16:18:28.726Z,5.78
2023-05-11T16:20:30.693Z,5.55
2023-05-11T16:22:32.288Z,8.00
2023-05-11T16:24:34.507Z,7.63
2023-05-11T16:26:36.340Z,6.28
2023-05-11T16:28:37.909Z,6.18
2023-05-11T16:30:39.383Z,7.10
2023-05-11T16:32:40.899Z,8.80
2023-05-11T16:34:42.625Z,10.32
2023-05-11T16:36:44.942Z,11.43
2023-05-11T16:38:46.839Z,8.40
2023-05-11T16:40:49.656Z,11.27
2023-05-11T16:42:51.191Z,8.27
2023-05-11T16:44:52.688Z,8.07
2023-05-11T16:46:54.297Z,8.23
2023-05-11T16:48:56.722Z,12.65
2023-05-11T16:50:59.952Z,10.40
2023-05-11T16:53:01.571Z,7.68
2023-05-11T16:55:03.772Z,8.52
2023-05-11T16:57:05.903Z,9.10
2023-05-11T16:59:08.771Z,8.88
2023-05-11T17:01:11.151Z,11.60
2023-05-11T17:03:12.856Z,11.13
2023-05-11T17:05:15.919Z,13.15
2023-05-11T17:07:17.371Z,11.40
2023-05-11T17:09:18.887Z,13.30
2023-05-11T17:11:21.518Z,9.63
2023-05-11T17:13:23.022Z,10.43
2023-05-11T17:15:24.530Z,14.27
2023-05-11T17:17:26.115Z,12.80
2023-05-11T17:19:27.592Z,13.30
2023-05-11T17:21:29.150Z,12.75
2023-05-11T17:23:31.403Z,12.60
2023-05-11T17:25:33.296Z,10.70
2023-05-11T17:27:36.582Z,14.95
2023-05-11T17:29:38.091Z,12.75
2023-05-11T17:31:40.218Z,12.25
2023-05-11T17:33:42.215Z,15.05
2023-05-11T17:35:43.964Z,12.93
2023-05-11T17:37:45.525Z,15.00
2023-05-11T17:39:47.875Z,11.65
2023-05-11T17:41:49.500Z,14.55
2023-05-11T17:43:51.092Z,14.90
2023-05-11T17:45:52.642Z,10.80
2023-05-11T17:47:54.457Z,13.35
2023-05-11T17:49:56.411Z,10.25
2023-05-11T17:51:58.757Z,8.95
2023-05-11T17:54:00.206Z,11.73
2023-05-11T17:56:01.951Z,10.57
2023-05-11T17:58:03.412Z,12.13
2023-05-11T18:00:06.233Z,14.13
2023-05-11T18:02:08.180Z,9.60
2023-05-11T18:04:09.732Z,9.98
2023-05-11T18:06:11.449Z,9.77
2023-05-11T18:08:14.173Z,9.80
2023-05-11T18:10:15.751Z,9.38
2023-05-11T18:12:17.672Z,9.32
2023-05-11T18:14:19.332Z,12.18
2023-05-11T18:16:21.299Z,10.70
2023-05-11T18:18:23.833Z,9.75
2023-05-11T18:20:25.818Z,9.32
2023-05-11T18:22:28.237Z,9.48
2023-05-11T18:24:29.815Z,10.32
2023-05-11T18:26:31.454Z,9.88
2023-05-11T18:28:33.078Z,11.25
2023-05-11T18:30:35.657Z,11.48
2023-05-11T18:32:37.393Z,13.10
2023-05-11T18:34:42.554Z,15.13
2023-05-11T18:36:44.063Z,13.65
2023-05-11T18:38:48.786Z,12.77
2023-05-11T18:40:51.325Z,12.75
2023-05-11T18:42:53.728Z,13.38
2023-05-11T18:44:55.192Z,10.93
2023-05-11T18:46:56.772Z,13.45
2023-05-11T18:48:58.288Z,14.60
2023-05-11T18:50:59.802Z,13.52
2023-05-11T18:53:02.118Z,14.60
2023-05-11T18:55:04.151Z,14.85
2023-05-11T18:57:07.796Z,11.65
2023-05-11T18:59:09.429Z,15.43
2023-05-11T19:01:11.050Z,14.75
2023-05-11T19:03:14.601Z,13.32
2023-05-11T19:05:16.278Z,13.00
2023-05-11T19:07:20.007Z,12.70
2023-05-11T19:09:22.928Z,14.82
2023-05-11T19:11:25.587Z,13.27
2023-05-11T19:13:27.110Z,14.65
2023-05-11T19:15:28.612Z,19.20
2023-05-11T19:17:30.416Z,14.05
2023-05-11T19:19:32.058Z,15.27
2023-05-11T19:21:35.489Z,16.55
2023-05-11T19:23:37.200Z,15.98
2023-05-11T19:25:38.813Z,16.00
2023-05-11T19:27:40.344Z,12.25
2023-05-11T19:29:41.843Z,16.80
2023-05-11T19:31:43.746Z,16.90
2023-05-11T19:33:45.308Z,16.40
2023-05-11T19:35:46.768Z,16.08
2023-05-11T19:37:48.349Z,15.85
2023-05-11T19:39:49.899Z,18.77
2023-05-11T19:41:51.403Z,17.45
2023-05-11T19:43:52.902Z,23.70
2023-05-11T19:45:54.450Z,21.75
2023-05-11T19:47:55.972Z,26.20
2023-05-11T19:49:57.602Z,18.55
2023-05-11T19:51:59.064Z,19.88
2023-05-11T19:54:00.719Z,18.50
2023-05-11T19:56:02.288Z,20.05
2023-05-11T19:58:03.750Z,18.50
2023-05-11T20:00:07.203Z,17.20
2023-05-11T20:02:08.688Z,22.33
2023-05-11T20:04:12.655Z,17.83
2023-05-11T20:06:14.125Z,18.02
2023-05-11T20:08:16.227Z,20.23
2023-05-11T20:10:18.043Z,22.42
2023-05-11T20:12:19.720Z,18.40
2023-05-11T20:14:21.188Z,19.52
2023-05-11T20:16:22.798Z,25.40
2023-05-11T20:18:24.335Z,23.38
2023-05-11T20:20:25.887Z,20.40
2023-05-11T20:22:27.575Z,25.08
2023-05-11T20:24:29.327Z,24.55
2023-05-11T20:26:31.182Z,22.35
2023-05-11T20:28:32.728Z,22.63
2023-05-11T20:30:34.209Z,26.65
2023-05-11T20:32:37.299Z,23.65
2023-05-11T20:34:39.017Z,22.88
2023-05-11T20:36:40.563Z,24.33
2023-05-11T20:38:42.006Z,24.88
2023-05-11T20:40:43.533Z,20.60
2023-05-11T20:42:45.060Z,22.48
2023-05-11T20:44:49.212Z,24.13
2023-05-11T20:46:50.728Z,21.52
2023-05-11T20:48:52.388Z,22.35
2023-05-11T20:50:54.829Z,24.63
2023-05-11T20:52:56.406Z,18.92
2023-05-11T20:54:57.855Z,20.40
2023-05-11T20:56:59.710Z,24.15
2023-05-11T20:59:01.170Z,32.97
2023-05-11T21:01:02.729Z,24.20
2023-05-11T21:03:04.564Z,25.33
2023-05-11T21:05:06.538Z,21.42
2023-05-11T21:07:08.423Z,23.73
2023-05-11T21:09:10.868Z,22.30
2023-05-11T21:11:12.345Z,22.83
2023-05-11T21:13:13.888Z,19.25
2023-05-11T21:15:15.413Z,17.92
2023-05-11T21:17:17.079Z,22.23
2023-05-11T21:19:19.610Z,17.77
2023-05-11T21:21:21.330Z,23.17
2023-05-11T21:23:22.783Z,16.70
2023-05-11T21:25:24.266Z,17.70
2023-05-11T21:27:25.825Z,17.23
2023-05-11T21:29:27.282Z,18.45
2023-05-11T21:31:28.891Z,16.92
2023-05-11T21:33:30.511Z,13.40
2023-05-11T21:35:31.973Z,14.27
2023-05-11T21:37:35.483Z,12.90
2023-05-11T21:39:36.966Z,13.32
2023-05-11T21:41:39.105Z,14.10
2023-05-11T21:43:41.070Z,13.85
2023-05-11T21:45:44.439Z,12.90
2023-05-11T21:47:46.183Z,16.63
2023-05-11T21:49:48.190Z,15.43
2023-05-11T21:51:51.019Z,21.95
2023-05-11T21:53:53.010Z,10.50
2023-05-11T21:55:55.028Z,8.73
2023-05-11T21:57:56.646Z,10.15
2023-05-11T21:59:58.139Z,10.18
2023-05-11T22:01:59.759Z,7.95
2023-05-11T22:04:01.425Z,7.15
2023-05-11T22:06:03.042Z,7.00
2023-05-11T22:08:13.980Z,6.07
2023-05-11T22:10:16.367Z,7.85
2023-05-11T22:12:18.058Z,6.07
2023-05-11T22:14:23.934Z,6.05
2023-05-11T22:16:25.597Z,6.57
2023-05-11T22:18:27.181Z,9.80
2023-05-11T22:20:28.645Z,6.72
2023-05-11T22:22:30.737Z,7.25
2023-05-11T22:24:32.282Z,10.98
2023-05-11T22:26:33.739Z,6.10
2023-05-11T22:28:35.983Z,6.82
2023-05-11T22:30:37.531Z,5.78
2023-05-11T22:32:39.018Z,5.88
2023-05-11T22:34:40.527Z,5.60
2023-05-11T22:36:41.980Z,5.93
2023-05-11T22:38:43.460Z,6.53
2023-05-11T22:40:44.971Z,7.65
2023-05-11T22:42:46.591Z,6.20
2023-05-11T22:44:48.533Z,9.85
2023-05-11T22:46:50.399Z,5.78
2023-05-11T22:48:51.927Z,6.10
2023-05-11T22:50:53.770Z,10.20
2023-05-11T22:52:55.270Z,5.47
2023-05-11T22:54:59.533Z,5.57
2023-05-11T22:57:01.666Z,5.68
2023-05-11T22:59:04.605Z,6.35
2023-05-11T23:01:06.404Z,5.40
2023-05-11T23:03:08.243Z,5.28
2023-05-11T23:05:10.063Z,5.15
2023-05-11T23:07:12.827Z,6.18
2023-05-11T23:09:15.060Z,7.55
2023-05-11T23:11:16.599Z,5.90
2023-05-11T23:13:18.468Z,4.70
2023-05-11T23:15:20.013Z,7.43
2023-05-11T23:17:21.745Z,9.25
2023-05-11T23:19:25.127Z,6.80
2023-05-11T23:21:26.932Z,8.27
2023-05-11T23:23:28.410Z,11.20
2023-05-11T23:25:29.893Z,5.53
2023-05-11T23:27:31.384Z,4.55
2023-05-11T23:29:32.921Z,5.55
2023-05-11T23:31:34.493Z,5.38
2023-05-11T23:33:36.444Z,6.43
2023-05-11T23:35:38.433Z,5.93
2023-05-11T23:37:40.266Z,5.72
2023-05-11T23:39:41.761Z,5.32
2023-05-11T23:41:43.238Z,4.85
2023-05-11T23:43:44.873Z,5.40
2023-05-11T23:45:46.317Z,4.70
2023-05-11T23:47:47.865Z,4.53
2023-05-11T23:49:49.616Z,6.07
2023-05-11T23:51:51.147Z,6.43
2023-05-11T23:53:52.691Z,4.88
2023-05-11T23:55:54.295Z,4.70
2023-05-11T23:57:58.222Z,4.47
